KSYM

Morehead-Rowan County Clyde A Thomas Regional Airport

Morehead, Kentucky, USA
KSYM 212339Z 2200/2224 VRB03KT P6SM SCT250 FM221800 16007KT P6SM FEW250
Issued Valid From Valid To
Jan-21 @ 23:39 UTC
(34 minutes ago)
Jan-22 @ 00:00 UTC
(13 minutes ago)
Jan-23 @ 00:00 UTC
(in 24 hours)
Jan-22 @ 00:00 to Jan-22 @ 18:00
KSYM 212339Z 2200/2224 VRB03KT P6SM SCT250
Wind Visibility Clouds
Variable at 3 knots Greater than 6 miles
  • Scattered at 25,000' AGL
From Jan-22 @ 18:00 to Jan-23 @ 00:00
FM221800 16007KT P6SM FEW250
Wind Visibility Clouds
160° at 7 knots Greater than 6 miles
  • Few at 25,000' AGL
KSYM 212339Z 2200/2224 VRB03KT P6SM SCT250 FM221800 16007KT P6SM FEW250
Issued Jan-21 @ 23:39 UTC
(34 minutes ago)
Valid From Jan-22 @ 00:00 UTC
(13 minutes ago)
Valid To Jan-23 @ 00:00 UTC
(in 24 hours)
Jan-22 @ 00:00 - Jan-22 @ 18:00
Wind Visibility
Variable at 3 knots Greater than 6 miles
Clouds
  • Scattered at 25,000' AGL
From Jan-22 @ 18:00 - Jan-23 @ 00:00
Wind Visibility
160° at 7 knots Greater than 6 miles
Clouds
  • Few at 25,000' AGL